Tiempo atmosférico en la estación meteorológica de Vallehermoso, Dama, Santa Cruz de Tenerife (190 m.)



Fecha
DESCASC
Temp. máxima en grados centígrados (hora)
DESCASC
Temp. mínima en grados centígrados (hora)
DESCASC
Temp. media en grados centígrados
DESCASC
Racha de viento máxima en m/sg (hora)
DESCASC
Velocidad máxima media en intervalos de 10 minutos(hora)
DESCASC
Precipitaciones diarias en mm
DESCASC
Precipitaciones de 00:00 a 06:00 en mm
DESCASC
Precipitaciones de 06:00 a 12:00 en mm
DESCASC
Precipitaciones de 12:00 a 18:00 en mm
DESCASC
Precipitaciones de 18:00 a 24:00 en mm
DESCASC
14-12-2019 22.8 (13:50) 13.3 (03:40) 18 4.17 (14:20) 2.5 (05:40) 0 0 0 0 0
13-12-2019 23.6 (12:00) 14.2 (08:10) 18.9 6.11 (03:30) 3.06 (02:00) 0 0 0 0 0
12-12-2019 23.7 (13:40) 14.7 (05:10) 19.2 8.89 (22:10) 4.17 (22:20) 0 0 0 0 0
11-12-2019 24.5 (12:00) 14.4 (00:00) 19.4 4.17 (15:50) 2.5 (12:40) 0 0 0 0 0
10-12-2019 24.2 (13:10) 12.9 (04:10) 18.6 4.17 (15:50) 2.78 (15:40) 0 0 0 0 0
09-12-2019 24.3 (13:30) 14.8 (23:10) 19.5 4.44 (01:40) 2.5 (13:40) 0 0 0 0 0
08-12-2019 24 (14:40) 16 (00:00) 20 8.06 (11:20) 3.61 (11:20) 0 0 0 0 0
07-12-2019 25.1 (15:00) 17.1 (00:00) 21.1 10.83 (11:30) 5.28 (11:30) 0 0 0 0 0
06-12-2019 22.9 (15:10) 16.7 (00:00) 19.8 15 (02:20) 6.39 (02:20) 0 0 0 0 0
05-12-2019 19.4 (15:10) 15.5 (00:00) 17.4 15 (05:30) 7.78 (03:00) 3.4 0.4 0.2 0.2 2.6
04-12-2019 22.3 (15:40) 16.4 (01:10) 19.3 14.44 (23:40) 7.5 (23:50) 2.2 0 0 0 2.2
03-12-2019 22.6 (15:10) 16.9 (00:00) 19.8 10.83 (02:00) 5.56 (02:00) 0 0 0 0 0
02-12-2019 23.9 (11:30) 15.6 (00:00) 19.8 12.5 (16:40) 6.67 (14:30) 0 0 0 0 0
01-12-2019 24.4 (14:00) 16.8 (00:00) 20.6 6.39 (12:40) 3.61 (11:50) 0 0 0 0 0
30-11-2019 28.3 (12:00) 16.8 (00:00) 22.5 3.06 (15:40) 2.22 (15:40) 0 0 0 0 0
29-11-2019 28 (15:10) 14.7 (00:00) 21.3 6.67 (13:50) 3.33 (13:50) 0 0 0 0 0
28-11-2019 24.5 (12:10) 15.1 (04:00) 19.8 5.83 (11:30) 3.06 (11:40) 0 0 0 0 0
27-11-2019 26.3 (14:00) 16.2 (00:00) 21.3 3.89 (13:50) 2.78 (14:00) 0 0 0 0 0
26-11-2019 25.9 (14:10) 14.8 (00:00) 20.3 4.17 (16:50) 2.78 (16:50) 0 0 0 0 0
25-11-2019 25.2 (12:00) 16.3 (07:20) 20.8 5.28 (17:50) 2.5 (16:50) 0 0 0 0 0
24-11-2019 26.7 (13:30) 16.5 (00:00) 21.6 5.83 (12:40) 3.61 (11:50) 0 0 0 0 0
23-11-2019 25.2 (14:10) 16.7 (00:00) 21 4.72 (13:50) 2.78 (15:20) 0 0 0 0 0
22-11-2019 26.2 (15:20) 15.3 (00:00) 20.8 6.94 (22:40) 3.61 (00:10) 0.2 0.2 0 0 0
21-11-2019 23.4 (15:00) 15.5 (00:00) 19.4 10 (21:00) 5.83 (12:30) 0.6 0 0 0 0.6
20-11-2019 24.9 (12:20) 14.7 (07:50) 19.8 10.28 (13:30) 5.28 (13:30) 0 0 0 0 0
19-11-2019 24 (13:50) 14.1 (00:00) 19.1 10.56 (16:40) 5.83 (16:30) 0 0 0 0 0
18-11-2019 25.8 (11:50) 15.2 (00:00) 20.5 5.56 (05:00) 2.78 (02:00) 0 0 0 0 0
17-11-2019 24.2 (12:50) 15.7 (00:00) 20 6.67 (15:40) 3.61 (15:40) 0 0 0 0 0
16-11-2019 25.3 (12:50) 17 (00:00) 21.1 11.11 (19:50) 4.44 (21:30) 0 0 0 0 0
15-11-2019 22.5 (14:30) 17.4 (00:00) 19.9 16.39 (20:20) 7.78 (20:30) 0 0 0 0 0

Gráficas

Temp. máximas Temp. mínimas Temp. medias Precipitaciones Rachas de viento máximas Velocidades máximas media en intervalos de 10 minutos

Datos horarios

Fecha y hora oficial Temperatura (ºC) Velocidad del viento (km/h) Dirección del viento Racha (km/h) Dirección de racha Precipitación (mm) Presión (hPa) Tendencia (hPa) Humedad (%)
2019-12-14 23:00:00 15.4 5 Este 8 Este 0 -- -- 90
2019-12-14 22:00:00 15.3 2 Este 5 Sudeste 0 -- -- 89
2019-12-14 21:00:00 16.7 5 Sudeste 14 Sur 0 -- -- 85
2019-12-14 20:00:00 16.9 8 Sudeste 15 Sur 0 -- -- 83
2019-12-14 19:00:00 17.7 7 Este 12 Sudeste 0 -- -- 79
2019-12-14 18:00:00 19.3 0 Calma 11 Oeste 0 -- -- 73
2019-12-14 17:00:00 20.5 6 Oeste 12 Noroeste 0 -- -- 69
2019-12-14 16:00:00 20.7 6 Noroeste 14 Norte 0 -- -- 64
2019-12-14 15:00:00 21.5 7 Noroeste 15 Noroeste 0 -- -- 61
2019-12-14 14:00:00 22.7 8 Noroeste 13 Noroeste 0 -- -- 57
2019-12-14 13:00:00 22.6 8 Oeste 12 Oeste 0 -- -- 58
2019-12-14 12:00:00 20.6 5 Oeste 9 Oeste 0 -- -- 64
2019-12-14 11:00:00 19.2 3 Sudoeste 9 Sur 0 -- -- 68
2019-12-14 10:00:00 19.8 4 Sudoeste 7 Sudoeste 0 -- -- 65
2019-12-14 09:00:00 16.1 4 Este 9 Este 0 -- -- 78
2019-12-14 08:00:00 13.8 6 Nordeste 9 Este 0 -- -- 83
2019-12-14 07:00:00 14.5 5 Este 11 Este 0 -- -- 80
2019-12-14 06:00:00 14.7 9 Este 12 Este 0 -- -- 78
2019-12-14 05:00:00 14.1 6 Este 10 Este 0 -- -- 80
2019-12-14 04:00:00 13.5 6 Este 8 Este 0 -- -- 83
2019-12-14 03:00:00 13.9 5 Nordeste 8 Nordeste 0 -- -- 81
2019-12-14 02:00:00 14.4 4 Este 7 Este 0 -- -- 80
2019-12-14 01:00:00 15 5 Este 11 Sudeste 0 -- -- 77
2019-12-14 00:00:00 15.5 5 Este 10 Este 0 -- -- 76
2019-12-13 23:00:00 16.4 4 Sudeste 12 Sudoeste 0 -- -- 73
2019-12-13 22:00:00 16.6 0 Calma 9 Oeste 0 -- -- 73
2019-12-13 21:00:00 17.2 2 Oeste 10 Noroeste 0 -- -- 71
2019-12-13 20:00:00 17.4 3 Nordeste 9 Sudeste 0 -- -- 71
2019-12-13 19:00:00 18.2 3 Sudoeste 11 Sur 0 -- -- 68
2019-12-13 18:00:00 19.2 5 Sudoeste 15 Sudoeste 0 -- -- 64
2019-12-13 17:00:00 20.1 7 Sudoeste 14 Oeste 0 -- -- 61
2019-12-13 16:00:00 21.4 10 Sudoeste 16 Oeste 0 -- -- 59
2019-12-13 15:00:00 22.3 9 Sudoeste 19 Sudoeste 0 -- -- 57
2019-12-13 14:00:00 22.6 9 Sudoeste 16 Sur 0 -- -- 54
2019-12-13 13:00:00 22.8 9 Sudoeste 16 Sudoeste 0 -- -- 53
2019-12-13 12:00:00 23.6 8 Oeste 13 Oeste 0 -- -- 51
2019-12-13 11:00:00 21 7 Sudoeste 13 Sudoeste 0 -- -- 61
2019-12-13 10:00:00 18.9 5 Sur 9 Sur 0 -- -- 66
2019-12-13 09:00:00 16.6 5 Este 11 Este 0 -- -- 74
2019-12-13 08:00:00 14.3 5 Este 10 Este 0 -- -- 78
2019-12-13 07:00:00 14.7 8 Este 12 Este 0 -- -- 75
2019-12-13 06:00:00 15.4 7 Este 13 Este 0 -- -- 69
2019-12-13 05:00:00 15.5 8 Este 14 Este 0 -- -- 73
2019-12-13 04:00:00 16.5 10 Este 22 Este 0 -- -- 66
2019-12-13 03:00:00 16.7 9 Este 20 Este 0 -- -- 66
2019-12-13 02:00:00 16.4 11 Este 19 Este 0 -- -- 66
2019-12-13 01:00:00 16.7 6 Nordeste 19 Sudeste 0 -- -- 63
2019-12-13 00:00:00 17.1 9 Este 20 Nordeste 0 -- -- 68
2019-12-12 23:00:00 17.6 9 Este 32 Este 0 -- -- 72
2019-12-12 22:00:00 17.8 14 Este 30 Este 0 -- -- 71
2019-12-12 21:00:00 17.7 10 Este 20 Este 0 -- -- 72
2019-12-12 20:00:00 17.8 4 Este 13 Sudeste 0 -- -- 82
2019-12-12 19:00:00 18.1 4 Noroeste 9 Sudoeste 0 -- -- 78
2019-12-12 18:00:00 19.5 6 Sudoeste 14 Sudoeste 0 -- -- 73
2019-12-12 17:00:00 21.1 8 Sudoeste 15 Sudoeste 0 -- -- 67
2019-12-12 16:00:00 22.3 9 Sudoeste 15 Sudoeste 0 -- -- 64
2019-12-12 15:00:00 23.1 9 Sudoeste 15 Sudoeste 0 -- -- 62
2019-12-12 14:00:00 23.2 8 Sudoeste 15 Sudoeste 0 -- -- 61
2019-12-12 13:00:00 23.4 8 Sudoeste 15 Sur 0 -- -- 62
2019-12-12 12:00:00 23.1 8 Sudoeste 14 Sudoeste 0 -- -- 65
2019-12-12 11:00:00 21.5 7 Sur 13 Sudoeste 0 -- -- 67
2019-12-12 10:00:00 19.8 8 Sur 14 Sur 0 -- -- 76
2019-12-12 09:00:00 17.3 7 Sudeste 19 Sudeste 0 -- -- 85
2019-12-12 08:00:00 15 5 Sudeste 13 Sudeste 0 -- -- 91
2019-12-12 07:00:00 14.9 8 Sudeste 10 Sudeste 0 -- -- 92
2019-12-12 06:00:00 14.9 7 Sudeste 9 Sudeste 0 -- -- 92
2019-12-12 05:00:00 14.8 6 Este 9 Este 0 -- -- 92
2019-12-12 04:00:00 14.8 6 Sudeste 9 Sudeste 0 -- -- 91
2019-12-12 03:00:00 14.9 8 Sudeste 10 Este 0 -- -- 88
2019-12-12 02:00:00 15.4 8 Este 14 Sudeste 0 -- -- 88
2019-12-12 01:00:00 15.5 7 Este 8 Este 0 -- -- 91
2019-12-12 00:00:00 15.8 8 Este 10 Este 0 -- -- 90
2019-12-11 23:00:00 15.7 5 Sudeste 7 Este 0 -- -- 89
2019-12-11 22:00:00 16.2 5 Este 8 Este 0 -- -- 87
2019-12-11 21:00:00 16.4 0 Calma 5 Este 0 -- -- 85
2019-12-11 20:00:00 17.2 3 Sudeste 6 Sudeste 0 -- -- 82
2019-12-11 19:00:00 18.4 3 Sudeste 10 Sur 0 -- -- 78
2019-12-11 18:00:00 19.6 6 Sur 13 Sur 0 -- -- 74
2019-12-11 17:00:00 21 8 Sur 14 Sur 0 -- -- 70
2019-12-11 16:00:00 22.9 8 Sudoeste 15 Sudoeste 0 -- -- 65
2019-12-11 15:00:00 23.6 8 Sudoeste 13 Sudoeste 0 -- -- 59
2019-12-11 14:00:00 23.4 8 Sudoeste 14 Sudoeste 0 -- -- 62
2019-12-11 13:00:00 23 8 Sur 14 Sur 0 -- -- 64
2019-12-11 12:00:00 24.5 8 Oeste 14 Oeste 0 -- -- 59
2019-12-11 11:00:00 22.8 6 Oeste 10 Sudoeste 0 -- -- 68
2019-12-11 10:00:00 20.5 3 Oeste 6 Oeste 0 -- -- 73
2019-12-11 09:00:00 17.6 3 Este 8 Nordeste 0 -- -- 87
2019-12-11 08:00:00 15 5 Este 8 Este 0 -- -- 94
2019-12-11 07:00:00 14.8 5 Nordeste 9 Este 0 -- -- 93
2019-12-11 06:00:00 15.6 6 Este 10 Este 0 -- -- 90
2019-12-11 05:00:00 15.9 4 Sudeste 6 Sudeste 0 -- -- 93
2019-12-11 04:00:00 14.9 3 Este 5 Este 0 -- -- 94
2019-12-11 03:00:00 14.8 0 Calma 9 Este 0 -- -- 88
2019-12-11 02:00:00 15.3 7 Sudeste 10 Sudeste 0 -- -- 86
2019-12-11 01:00:00 15.4 5 Este 10 Este 0 -- -- 87
2019-12-11 00:00:00 15.4 7 Este 9 Este 0 -- -- 86
2019-12-10 23:00:00 15.4 4 Sudeste 8 Este 0 -- -- 85
2019-12-10 22:00:00 15.7 5 Este 8 Este 0 -- -- 84
2019-12-10 21:00:00 15.7 4 Sudeste 6 Sudeste 0 -- -- 83
2019-12-10 20:00:00 16.1 2 Sur 5 Sur 0 -- -- 80
2019-12-10 19:00:00 17.3 0 Calma 6 Sudoeste 0 -- -- 74
2019-12-10 18:00:00 19 4 Sudoeste 11 Sudeste 0 -- -- 66
2019-12-10 17:00:00 20.1 8 Sur 14 Sur 0 -- -- 62
2019-12-10 16:00:00 21.5 9 Sur 15 Sur 0 -- -- 60
2019-12-10 15:00:00 22.7 8 Sudoeste 12 Sudoeste 0 -- -- 54
2019-12-10 14:00:00 24 8 Sudoeste 14 Oeste 0 -- -- 53
2019-12-10 13:00:00 24.1 8 Oeste 13 Oeste 0 -- -- 55
2019-12-10 12:00:00 23.1 6 Sudoeste 12 Oeste 0 -- -- 57
2019-12-10 11:00:00 22.4 6 Oeste 10 Oeste 0 -- -- 58
2019-12-10 10:00:00 20.2 5 Oeste 7 Oeste 0 -- -- 65
2019-12-10 09:00:00 16.6 5 Este 11 Este 0 -- -- 78
2019-12-10 08:00:00 14.2 9 Este 12 Este 0 -- -- 82
2019-12-10 07:00:00 13.6 5 Nordeste 10 Nordeste 0 -- -- 87
2019-12-10 06:00:00 13.1 4 Este 6 Este 0 -- -- 89
2019-12-10 05:00:00 12.9 6 Nordeste 8 Nordeste 0 -- -- 86
2019-12-10 04:00:00 13 4 Nordeste 6 Nordeste 0 -- -- 86
2019-12-10 03:00:00 13.7 3 Este 6 Sudeste 0 -- -- 82
2019-12-10 02:00:00 13.7 0 Calma 7 Nordeste 0 -- -- 87
2019-12-10 01:00:00 14.2 4 Nordeste 8 Nordeste 0 -- -- 85
2019-12-10 00:00:00 14.8 5 Nordeste 8 Nordeste 0 -- -- 82
2019-12-09 23:00:00 15 4 Nordeste 6 Nordeste 0 -- -- 81
2019-12-09 22:00:00 15.9 2 Sudeste 8 Sudeste 0 -- -- 78
2019-12-09 21:00:00 16.5 0 Calma 8 Sur 0 -- -- 74
2019-12-09 20:00:00 18 5 Sur 15 Sudeste 0 -- -- 68
2019-12-09 19:00:00 18.5 4 Este 9 Sudeste 0 -- -- 58
2019-12-09 18:00:00 20.2 3 Sudoeste 8 Sudoeste 0 -- -- 58
2019-12-09 17:00:00 21.5 6 Sudoeste 11 Sudoeste 0 -- -- 58
2019-12-09 16:00:00 23.3 6 Sur 13 Sudoeste 0 -- -- 56
2019-12-09 15:00:00 23.4 8 Sudoeste 15 Sudoeste 0 -- -- 54
2019-12-09 14:00:00 23.7 9 Sudoeste 14 Sudoeste 0 -- -- 50
2019-12-09 13:00:00 23.7 8 Sudoeste 13 Sudoeste 0 -- -- 50
2019-12-09 12:00:00 22.6 7 Sur 16 Sur 0 -- -- 55
2019-12-09 11:00:00 22 6 Sur 10 Sur 0 -- -- 54
2019-12-09 10:00:00 20.6 3 Noroeste 5 Norte 0 -- -- 62
2019-12-09 09:00:00 17 0 Calma 9 Este 0 -- -- 76
2019-12-09 08:00:00 15.1 6 Este 11 Este 0 -- -- 77
2019-12-09 07:00:00 15 9 Este 11 Este 0 -- -- 78
2019-12-09 06:00:00 15.5 3 Este 12 Este 0 -- -- 73
2019-12-09 05:00:00 15.3 4 Este 8 Este 0 -- -- 80
2019-12-09 04:00:00 14.9 4 Norte 9 Nordeste 0 -- -- 79
2019-12-09 03:00:00 15.9 5 Este 15 Sudeste 0 -- -- 76
2019-12-09 02:00:00 15.9 8 Este 16 Este 0 -- -- 76
2019-12-09 01:00:00 16.4 4 Este 12 Este 0 -- -- 75
2019-12-09 00:00:00 17.3 4 Este 18 Sudeste 0 -- -- 72
2019-12-08 23:00:00 17.2 8 Este 17 Noroeste 0 -- -- 72
2019-12-08 22:00:00 17.9 12 Este 25 Nordeste 0 -- -- 65
2019-12-08 21:00:00 17.6 7 Nordeste 18 Nordeste 0 -- -- 65
2019-12-08 20:00:00 17.2 0 Calma 11 Nordeste 0 -- -- 72
2019-12-08 19:00:00 18.3 4 Norte 14 Sur 0 -- -- 73
2019-12-08 18:00:00 19.1 6 Oeste 22 Este 0 -- -- 71
2019-12-08 17:00:00 20 4 Sudoeste 12 Oeste 0 -- -- 68
2019-12-08 16:00:00 20.8 6 Oeste 18 Sur 0 -- -- 65
2019-12-08 15:00:00 23.1 8 Nordeste 23 Sudoeste 0 -- -- 55
2019-12-08 14:00:00 22.2 10 Sur 19 Sudoeste 0 -- -- 59
2019-12-08 13:00:00 22.3 4 Sur 21 Este 0 -- -- 56
2019-12-08 12:00:00 22.4 11 Nordeste 29 Nordeste 0 -- -- 50
2019-12-08 11:00:00 22 9 Este 28 Norte 0 -- -- 47
2019-12-08 10:00:00 20.9 4 Sudoeste 16 Sudeste 0 -- -- 55
2019-12-08 09:00:00 18.1 11 Sudeste 17 Sudeste 0 -- -- 64
2019-12-08 08:00:00 16.2 4 Nordeste 19 Este 0 -- -- 64
2019-12-08 07:00:00 16.8 9 Este 17 Nordeste 0 -- -- 64
2019-12-08 06:00:00 16.6 6 Sudeste 18 Sudeste 0 -- -- 70
2019-12-08 05:00:00 17 3 Este 17 Noroeste 0 -- -- 70
2019-12-08 04:00:00 17.2 7 Sudoeste 17 Sudeste 0 -- -- 71
2019-12-08 03:00:00 16.7 6 Este 22 Este 0 -- -- 70
2019-12-08 02:00:00 16.3 3 Sudeste 13 Norte 0 -- -- 73
2019-12-08 01:00:00 17.3 4 Oeste 14 Este 0 -- -- 69
2019-12-08 00:00:00 18.1 5 Nordeste 13 Sudeste 0 -- -- 66
2019-12-07 23:00:00 17.7 4 Este 20 Norte 0 -- -- 66
2019-12-07 22:00:00 17.1 8 Oeste 14 Oeste 0 -- -- 65
2019-12-07 21:00:00 18.1 3 Sudeste 30 Nordeste 0 -- -- 56
2019-12-07 20:00:00 18.5 15 Nordeste 35 Norte 0 -- -- 58
2019-12-07 19:00:00 19.3 8 Norte 25 Nordeste 0 -- -- 59
2019-12-07 18:00:00 20.4 8 Nordeste 31 Nordeste 0 -- -- 54
2019-12-07 17:00:00 21.9 10 Norte 30 Nordeste 0 -- -- 53
2019-12-07 16:00:00 22.9 11 Norte 28 Norte 0 -- -- 50
2019-12-07 15:00:00 25.1 8 Oeste 23 Oeste 0 -- -- 47
2019-12-07 14:00:00 23.7 12 Sudoeste 31 Este 0 -- -- 52
2019-12-07 13:00:00 23.1 10 Sudeste 36 Este 0 -- -- 55
2019-12-07 12:00:00 22.9 10 Este 39 Este 0 -- -- 50
2019-12-07 11:00:00 21.9 11 Este 31 Este 0 -- -- 53
2019-12-07 10:00:00 20.6 11 Sudeste 33 Sur 0 -- -- 53
2019-12-07 09:00:00 18.6 3 Oeste 13 Sudoeste 0 -- -- 67
2019-12-07 08:00:00 17.3 4 Sur 23 Norte 0 -- -- 69
2019-12-07 07:00:00 17.4 10 Este 18 Este 0 -- -- 67
2019-12-07 06:00:00 17.3 9 Norte 23 Norte 0 -- -- 66
2019-12-07 05:00:00 17.8 7 Sudeste 27 Este 0 -- -- 65
2019-12-07 04:00:00 17.6 14 Este 27 Este 0 -- -- 67
2019-12-07 03:00:00 17.7 9 Norte 25 Noroeste 0 -- -- 64
2019-12-07 02:00:00 17.9 6 Nordeste 28 Noroeste 0 -- -- 63
2019-12-07 01:00:00 17.9 10 Norte 24 Norte 0 -- -- 64
2019-12-07 00:00:00 17.9 11 Norte 31 Norte 0 -- -- 66
2019-12-06 23:00:00 18 5 Este 34 Nordeste 0 -- -- 64
2019-12-06 22:00:00 18.2 17 Nordeste 33 Este 0 -- -- 64
2019-12-06 21:00:00 18.4 10 Nordeste 29 Norte 0 -- -- 60
2019-12-06 20:00:00 18.5 10 Nordeste 39 Norte 0 -- -- 59
2019-12-06 19:00:00 18.5 17 Nordeste 54 Nordeste 0 -- -- 59
2019-12-06 18:00:00 18.9 17 Nordeste 48 Nordeste 0 -- -- 59
2019-12-06 17:00:00 20 18 Nordeste 41 Nordeste 0 -- -- 55
2019-12-06 16:00:00 21.6 20 Nordeste 40 Norte 0 -- -- 52
2019-12-06 15:00:00 22.4 9 Norte 32 Norte 0 -- -- 51
2019-12-06 14:00:00 21.3 14 Noroeste 35 Nordeste 0 -- -- 59
2019-12-06 13:00:00 20.4 15 Norte 32 Norte 0 -- -- 62
2019-12-06 12:00:00 18.7 9 Noroeste 24 Noroeste 0 -- -- 64
2019-12-06 11:00:00 18.7 7 Noroeste 26 Oeste 0 -- -- 67
2019-12-06 10:00:00 18 6 Oeste 24 Oeste 0 -- -- 69
2019-12-06 09:00:00 17.2 9 Oeste 25 Noroeste 0 -- -- 72
2019-12-06 08:00:00 16.7 5 Norte 22 Noroeste 0 -- -- 70
2019-12-06 07:00:00 17 4 Oeste 32 Nordeste 0 -- -- 71
2019-12-06 06:00:00 16.8 9 Oeste 33 Norte 0 -- -- 71
2019-12-06 05:00:00 16.8 9 Nordeste 40 Nordeste 0 -- -- 71
2019-12-06 04:00:00 17 6 Norte 36 Noroeste 0 -- -- 70
2019-12-06 03:00:00 17.1 8 Este 54 Norte 0 -- -- 68
2019-12-06 02:00:00 17.1 18 Nordeste 53 Nordeste 0 -- -- 71
2019-12-06 01:00:00 16.8 20 Nordeste 51 Nordeste 0 -- -- 71
2019-12-06 00:00:00 16.7 22 Nordeste 49 Este 0.8 -- -- 68
2019-12-05 23:00:00 16.3 19 Nordeste 46 Norte 1.4 -- -- 70
2019-12-05 22:00:00 16.5 15 Este 48 Norte 0.4 -- -- 71
2019-12-05 21:00:00 17.2 24 Nordeste 52 Nordeste 0 -- -- 62
2019-12-05 20:00:00 17 21 Nordeste 48 Norte 0 -- -- 59
2019-12-05 19:00:00 17 17 Nordeste 51 Norte 0 -- -- 65
2019-12-05 18:00:00 16.7 25 Nordeste 48 Nordeste 0 -- -- 63
2019-12-05 17:00:00 17.8 11 Nordeste 50 Este 0 -- -- 66
2019-12-05 16:00:00 19.3 14 Norte 34 Norte 0 -- -- 63
2019-12-05 15:00:00 19.1 16 Nordeste 44 Este 0 -- -- 63
2019-12-05 14:00:00 18.2 14 Nordeste 50 Nordeste 0.2 -- -- 71
2019-12-05 13:00:00 18.7 19 Este 46 Sudeste 0 -- -- 60
2019-12-05 12:00:00 18.6 14 Norte 40 Nordeste 0 -- -- 70
2019-12-05 11:00:00 18.6 14 Nordeste 34 Nordeste 0 -- -- 61
2019-12-05 10:00:00 17 6 Nordeste 30 Nordeste 0 -- -- 70
2019-12-05 09:00:00 16.4 7 Nordeste 27 Norte 0 -- -- 68
2019-12-05 08:00:00 15.5 9 Nordeste 37 Norte 0 -- -- 74
2019-12-05 07:00:00 16.1 19 Nordeste 42 Este 0.2 -- -- 71
2019-12-05 06:00:00 16.1 8 Nordeste 54 Noroeste 0 -- -- 75
2019-12-05 05:00:00 16.6 21 Nordeste 53 Nordeste 0 -- -- 65
2019-12-05 04:00:00 16.7 16 Nordeste 53 Nordeste 0 -- -- 71
2019-12-05 03:00:00 16.8 28 Nordeste 52 Nordeste 0 -- -- 70
2019-12-05 02:00:00 16.8 22 Nordeste 43 Este 0 -- -- 77
2019-12-05 01:00:00 16.8 5 Sur 35 Norte 0.4 -- -- 94
2019-12-05 00:00:00 16.9 17 Norte 52 Norte 2.2 -- -- 94
2019-12-04 23:00:00 17.6 15 Norte 28 Noroeste 0 -- -- 87
2019-12-04 22:00:00 18 10 Norte 26 Norte 0 -- -- 78
2019-12-04 21:00:00 18.4 13 Norte 29 Norte 0 -- -- 72
2019-12-04 20:00:00 18.3 11 Norte 25 Noroeste 0 -- -- 72
2019-12-04 19:00:00 18.6 6 Norte 31 Nordeste 0 -- -- 66
2019-12-04 18:00:00 18.9 14 Nordeste 37 Norte 0 -- -- 59
2019-12-04 17:00:00 20 20 Norte 35 Norte 0 -- -- 54
2019-12-04 16:00:00 21.9 19 Norte 37 Norte 0 -- -- 49
2019-12-04 15:00:00 21.5 14 Nordeste 27 Nordeste 0 -- -- 54
2019-12-04 14:00:00 21.6 10 Norte 22 Norte 0 -- -- 58
2019-12-04 13:00:00 20 4 Norte 25 Norte 0 -- -- 66
2019-12-04 12:00:00 19.3 5 Sudeste 19 Norte 0 -- -- 65
2019-12-04 11:00:00 18.8 10 Norte 21 Norte 0 -- -- 70
2019-12-04 10:00:00 19.8 5 Noroeste 12 Noroeste 0 -- -- 62
2019-12-04 09:00:00 19.4 5 Norte 9 Norte 0 -- -- 61
2019-12-04 08:00:00 17.5 6 Norte 15 Norte 0 -- -- 62
2019-12-04 07:00:00 16.9 6 Nordeste 11 Nordeste 0 -- -- 59
2019-12-04 06:00:00 17.3 5 Este 21 Norte 0 -- -- 61
2019-12-04 05:00:00 17.2 9 Nordeste 24 Este 0 -- -- 62
2019-12-04 04:00:00 17 9 Este 22 Este 0 -- -- 61
2019-12-04 03:00:00 17.4 11 Nordeste 27 Nordeste 0 -- -- 57
2019-12-04 02:00:00 16.7 10 Nordeste 21 Nordeste 0 -- -- 63
2019-12-04 01:00:00 16.5 6 Norte 14 Norte 0 -- -- 64
2019-12-04 00:00:00 17.9 4 Norte 28 Norte 0 -- -- 60
2019-12-03 23:00:00 18.1 8 Norte 20 Norte 0 -- -- 62
2019-12-03 22:00:00 18 9 Norte 19 Norte 0 -- -- 62
2019-12-03 21:00:00 17.7 7 Nordeste 21 Nordeste 0 -- -- 64
2019-12-03 20:00:00 17.6 9 Norte 17 Norte 0 -- -- 60
2019-12-03 19:00:00 18 8 Norte 21 Nordeste 0 -- -- 61
2019-12-03 18:00:00 18.8 8 Nordeste 21 Norte 0 -- -- 57
2019-12-03 17:00:00 19.6 10 Norte 27 Norte 0 -- -- 62
2019-12-03 16:00:00 21.1 9 Nordeste 24 Este 0 -- -- 50
2019-12-03 15:00:00 21.9 8 Nordeste 28 Sudeste 0 -- -- 51
2019-12-03 14:00:00 20.4 9 Nordeste 17 Nordeste 0 -- -- 57
2019-12-03 13:00:00 19.4 6 Sur 14 Sur 0 -- -- 67
2019-12-03 12:00:00 18.8 6 Sur 12 Sur 0 -- -- 69
2019-12-03 11:00:00 18.6 0 Calma 28 Noroeste 0 -- -- 72
2019-12-03 10:00:00 18.5 7 Norte 32 Norte 0 -- -- 66
2019-12-03 09:00:00 17.4 8 Norte 21 Norte 0 -- -- 73
2019-12-03 08:00:00 17.2 13 Norte 28 Norte 0 -- -- 66
2019-12-03 07:00:00 17 6 Norte 20 Nordeste 0 -- -- 70
2019-12-03 06:00:00 17.3 6 Nordeste 27 Norte 0 -- -- 73
2019-12-03 05:00:00 17.5 11 Norte 33 Norte 0 -- -- 72
2019-12-03 04:00:00 17.5 8 Norte 26 Nordeste 0 -- -- 66
2019-12-03 03:00:00 17.5 7 Norte 28 Noroeste 0 -- -- 70
2019-12-03 02:00:00 17.4 20 Nordeste 39 Nordeste 0 -- -- 66
2019-12-03 01:00:00 17.9 14 Nordeste 38 Norte 0 -- -- 65
2019-12-03 00:00:00 18.2 12 Norte 42 Norte 0 -- -- 66
2019-12-02 23:00:00 18.4 14 Norte 31 Nordeste 0 -- -- 68
2019-12-02 22:00:00 18.2 19 Nordeste 39 Nordeste 0 -- -- 67
2019-12-02 21:00:00 18.4 8 Nordeste 31 Nordeste 0 -- -- 64
2019-12-02 20:00:00 18.4 16 Nordeste 36 Norte 0 -- -- 62
2019-12-02 19:00:00 18.6 14 Nordeste 32 Este 0 -- -- 62
2019-12-02 18:00:00 19.1 19 Nordeste 35 Norte 0 -- -- 59
2019-12-02 17:00:00 19.9 22 Nordeste 45 Nordeste 0 -- -- 55
2019-12-02 16:00:00 21.3 16 Nordeste 35 Norte 0 -- -- 53
2019-12-02 15:00:00 22.2 18 Norte 41 Nordeste 0 -- -- 52
2019-12-02 14:00:00 23.1 21 Nordeste 37 Norte 0 -- -- 51
2019-12-02 13:00:00 23.3 10 Nordeste 23 Nordeste 0 -- -- 59
2019-12-02 12:00:00 23.1 8 Sudoeste 15 Sudoeste 0 -- -- 62
2019-12-02 11:00:00 22.6 8 Sudoeste 13 Sur 0 -- -- 66
2019-12-02 10:00:00 21 7 Sur 13 Sudeste 0 -- -- 70
2019-12-02 09:00:00 18.7 5 Sudeste 13 Sudeste 0 -- -- 79
2019-12-02 08:00:00 15.6 4 Sudeste 9 Este 0 -- -- 89
2019-12-02 07:00:00 16 7 Sudeste 13 Sudeste 0 -- -- 89
2019-12-02 06:00:00 15.8 4 Sudeste 6 Sudeste 0 -- -- 90
2019-12-02 05:00:00 16.4 0 Calma 5 Sudeste 0 -- -- 87
2019-12-02 04:00:00 17.3 3 Este 10 Sur 0 -- -- 83
2019-12-02 03:00:00 18.4 6 Sudeste 15 Sur 0 -- -- 80
2019-12-02 02:00:00 17.7 3 Sudeste 8 Sur 0 -- -- 91
2019-12-02 01:00:00 17.2 3 Sudeste 6 Sudeste 0 -- -- 90
2019-12-02 00:00:00 18.1 2 Este 5 Sudeste 0 -- -- 85
2019-12-01 23:00:00 18.7 0 Calma 9 Sudeste 0 -- -- 84
2019-12-01 22:00:00 19.1 0 Calma 7 Nordeste 0 -- -- 84
2019-12-01 21:00:00 19.1 2 Este 6 Nordeste 0 -- -- 83
2019-12-01 20:00:00 19.9 3 Sudoeste 15 Sudoeste 0 -- -- 81
2019-12-01 19:00:00 20.3 6 Noroeste 16 Oeste 0 -- -- 80
2019-12-01 18:00:00 21.2 6 Oeste 13 Noroeste 0 -- -- 76
2019-12-01 17:00:00 23 8 Oeste 17 Oeste 0 -- -- 71
2019-12-01 16:00:00 24.4 8 Noroeste 16 Sudoeste 0 -- -- 66
2019-12-01 15:00:00 24.1 9 Sudoeste 20 Oeste 0 -- -- 69
2019-12-01 14:00:00 24.4 9 Sudoeste 16 Sur 0 -- -- 69
2019-12-01 13:00:00 23.7 11 Sur 23 Sur 0 -- -- 68
2019-12-01 12:00:00 22.9 13 Sur 21 Sur 0 -- -- 75
2019-12-01 11:00:00 22.8 12 Sur 20 Sur 0 -- -- 74
2019-12-01 10:00:00 22.3 12 Sur 21 Sur 0 -- -- 76
2019-12-01 09:00:00 20.8 4 Sudeste 12 Sudeste 0 -- -- 59
2019-12-01 08:00:00 18.5 10 Sudeste 13 Sudeste 0 -- -- 54
2019-12-01 07:00:00 17.5 7 Sudeste 9 Sudeste 0 -- -- 58
2019-12-01 06:00:00 16.9 5 Sudeste 8 Este 0 -- -- 48
2019-12-01 05:00:00 17.5 4 Sudeste 8 Nordeste 0 -- -- 44
2019-12-01 04:00:00 17.7 3 Sudeste 8 Nordeste 0 -- -- 46
2019-12-01 03:00:00 17.8 3 Este 8 Sudeste 0 -- -- 54
2019-12-01 02:00:00 17.9 5 Sudeste 8 Sudeste 0 -- -- 56
2019-12-01 01:00:00 17.7 0 Calma 6 Nordeste 0 -- -- 45
2019-12-01 00:00:00 17.9 0 Calma 5 Nordeste 0 -- -- 46
2019-11-30 23:00:00 18 2 Sudeste 3 Sudeste 0 -- -- 46
2019-11-30 22:00:00 18.2 0 Calma 5 Nordeste 0 -- -- 60
2019-11-30 21:00:00 18.7 2 Norte 3 Nordeste 0 -- -- 68
2019-11-30 20:00:00 19.8 0 Calma 8 Norte 0 -- -- 65
2019-11-30 19:00:00 21.3 0 Calma 4 Norte 0 -- -- 59
2019-11-30 18:00:00 23.8 3 Sur 11 Sudoeste 0 -- -- 50
2019-11-30 17:00:00 25.5 6 Sudoeste 11 Sudoeste 0 -- -- 48
2019-11-30 16:00:00 26.8 7 Sudoeste 11 Sudoeste 0 -- -- 44
2019-11-30 15:00:00 27.9 5 Sudoeste 11 Sur 0 -- -- 43
2019-11-30 14:00:00 27.8 6 Sur 11 Sudoeste 0 -- -- 43
2019-11-30 13:00:00 28.3 4 Sudoeste 9 Sudoeste 0 -- -- 43
2019-11-30 12:00:00 28.3 4 Oeste 8 Sudoeste 0 -- -- 43
2019-11-30 11:00:00 27 5 Oeste 8 Oeste 0 -- -- 45
2019-11-30 10:00:00 23.7 4 Sur 8 Sur 0 -- -- 51
2019-11-30 09:00:00 20.9 0 Calma 8 Este 0 -- -- 68
2019-11-30 08:00:00 17.2 0 Calma 6 Sudeste 0 -- -- 68
2019-11-30 07:00:00 17 2 Este 6 Este 0 -- -- 68
2019-11-30 06:00:00 17 3 Norte 5 Nordeste 0 -- -- 69
2019-11-30 05:00:00 17.4 3 Sudeste 8 Nordeste 0 -- -- 66
2019-11-30 04:00:00 17.9 4 Este 7 Sudeste 0 -- -- 67
2019-11-30 03:00:00 18.1 3 Sudeste 8 Este 0 -- -- 65
2019-11-30 02:00:00 17.4 0 Calma 5 Noroeste 0 -- -- 66
2019-11-30 01:00:00 17.6 0 Calma 4 Este 0 -- -- 67
2019-11-30 00:00:00 18.1 0 Calma 6 Este 0 -- -- 67
2019-11-29 23:00:00 18 2 Este 4 Nordeste 0 -- -- 67
2019-11-29 22:00:00 18.6 0 Calma 8 Norte 0 -- -- 66
2019-11-29 21:00:00 19.1 6 Norte 9 Nordeste 0 -- -- 66
2019-11-29 20:00:00 19.6 0 Calma 5 Este 0 -- -- 65
2019-11-29 19:00:00 21.2 3 Sudeste 7 Sur 0 -- -- 60
2019-11-29 18:00:00 23.8 4 Sur 9 Oeste 0 -- -- 49
2019-11-29 17:00:00 25.7 3 Sur 14 Sudoeste 0 -- -- 46
2019-11-29 16:00:00 27.1 6 Sudoeste 21 Sudoeste 0 -- -- 45
2019-11-29 15:00:00 27.9 11 Sudoeste 21 Oeste 0 -- -- 42
2019-11-29 14:00:00 27.2 9 Sudoeste 24 Sudoeste 0 -- -- 50
2019-11-29 13:00:00 26.5 8 Sudoeste 16 Sur 0 -- -- 49
2019-11-29 12:00:00 25.3 6 Sur 15 Sudoeste 0 -- -- 59
2019-11-29 11:00:00 24.6 4 Sudoeste 14 Sudoeste 0 -- -- 56
2019-11-29 10:00:00 22.4 3 Sudoeste 9 Noroeste 0 -- -- 71
2019-11-29 09:00:00 18.5 5 Norte 10 Noroeste 0 -- -- 81
2019-11-29 08:00:00 14.7 5 Nordeste 6 Nordeste 0 -- -- 81
2019-11-29 07:00:00 15.2 2 Noroeste 6 Noroeste 0 -- -- 81
2019-11-29 06:00:00 15.8 3 Este 12 Noroeste 0 -- -- 78
2019-11-29 05:00:00 15.5 5 Nordeste 10 Sudeste 0 -- -- 69
2019-11-29 04:00:00 15.6 4 Este 6 Nordeste 0 -- -- 74
2019-11-29 03:00:00 16.6 4 Norte 15 Sudeste 0 -- -- 79
2019-11-29 02:00:00 16.6 8 Sudeste 13 Sudeste 0 -- -- 80
2019-11-29 01:00:00 16 4 Sudeste 9 Sudeste 0 -- -- 78
2019-11-29 00:00:00 16.9 7 Sudeste 13 Sudeste 0 -- -- 86
2019-11-28 23:00:00 16.5 3 Sur 8 Norte 0 -- -- 88
2019-11-28 22:00:00 17.2 3 Sur 10 Este 0 -- -- 83
2019-11-28 21:00:00 18 2 Sudeste 8 Nordeste 0 -- -- 84
2019-11-28 20:00:00 18.1 4 Sudeste 8 Sudeste 0 -- -- 82
2019-11-28 19:00:00 18.9 4 Sudeste 9 Sudeste 0 -- -- 82
2019-11-28 18:00:00 20.1 0 Calma 4 Nordeste 0 -- -- 77
2019-11-28 17:00:00 21 0 Calma 9 Oeste 0 -- -- 72
2019-11-28 16:00:00 21 0 Calma 12 Sur 0 -- -- 71
2019-11-28 15:00:00 21.6 6 Sur 11 Sur 0 -- -- 68
2019-11-28 14:00:00 22 6 Sur 10 Sudoeste 0 -- -- 67
2019-11-28 13:00:00 22.3 7 Sur 17 Oeste 0 -- -- 66
2019-11-28 12:00:00 24.4 10 Noroeste 21 Noroeste 0 -- -- 60
2019-11-28 11:00:00 22.9 9 Norte 18 Norte 0 -- -- 71
2019-11-28 10:00:00 19.1 6 Norte 12 Noroeste 0 -- -- 86
2019-11-28 09:00:00 17.1 4 Este 10 Este 0 -- -- 94
2019-11-28 08:00:00 15.7 7 Este 12 Este 0 -- -- 92
2019-11-28 07:00:00 15.3 8 Este 10 Este 0 -- -- 94
2019-11-28 06:00:00 15.6 6 Nordeste 8 Nordeste 0 -- -- 95
2019-11-28 05:00:00 15.6 3 Este 8 Este 0 -- -- 95
2019-11-28 04:00:00 15.1 2 Nordeste 5 Nordeste 0 -- -- 93
2019-11-28 03:00:00 15.5 2 Este 3 Este 0 -- -- 93
2019-11-28 02:00:00 15.7 0 Calma 3 Sudeste 0 -- -- 93
2019-11-28 01:00:00 15.8 2 Este 3 Nordeste 0 -- -- 92
2019-11-28 00:00:00 16.2 2 Nordeste 6 Nordeste 0 -- -- 88
2019-11-27 23:00:00 16.8 3 Sudeste 4 Sudeste 0 -- -- 88
2019-11-27 22:00:00 17.7 0 Calma 5 Noroeste 0 -- -- 83
2019-11-27 21:00:00 19.2 4 Noroeste 14 Oeste 0 -- -- 79
2019-11-27 20:00:00 19.6 4 Noroeste 9 Oeste 0 -- -- 79
2019-11-27 19:00:00 19.4 3 Oeste 8 Sudoeste 0 -- -- 78
2019-11-27 18:00:00 20.3 5 Sudoeste 10 Sudoeste 0 -- -- 75
2019-11-27 17:00:00 21.7 7 Sudoeste 13 Sudoeste 0 -- -- 70
2019-11-27 16:00:00 23.5 8 Sudoeste 14 Sudoeste 0 -- -- 64
2019-11-27 15:00:00 24.5 9 Sudoeste 14 Sudoeste 0 -- -- 61
2019-11-27 14:00:00 26.3 10 Oeste 14 Sudoeste 0 -- -- 58
2019-11-27 13:00:00 25.6 8 Oeste 14 Oeste 0 -- -- 60
2019-11-27 05:00:00 -- -- -- -- -- -- -- -- --
2019-11-27 04:00:00 18.3 0 Calma 3 Sur 0 -- -- 87
2019-11-27 03:00:00 18.9 0 Calma 7 Sudeste 0 -- -- 85
2019-11-27 02:00:00 18.9 5 Este 10 Este 0 -- -- 85
2019-11-27 01:00:00 18.9 3 Sudeste 12 Sur 0 -- -- 83
2019-11-27 00:00:00 18.4 5 Sudeste 12 Oeste 0 -- -- 85
2019-11-26 23:00:00 16.9 3 Este 7 Nordeste 0 -- -- 92
2019-11-26 22:00:00 16.3 3 Nordeste 5 Este 0 -- -- 88
2019-11-26 21:00:00 16.7 3 Nordeste 4 Nordeste 0 -- -- 84
2019-11-26 20:00:00 17.6 0 Calma 4 Sur 0 -- -- 79
2019-11-26 19:00:00 18.9 0 Calma 10 Sur 0 -- -- 75
2019-11-26 18:00:00 19.9 6 Sur 15 Sur 0 -- -- 74
2019-11-26 17:00:00 21.3 10 Sur 15 Sur 0 -- -- 69
2019-11-26 16:00:00 23.1 10 Sur 14 Sur 0 -- -- 64
2019-11-26 15:00:00 25.7 9 Noroeste 14 Norte 0 -- -- 56
2019-11-26 14:00:00 25.8 8 Noroeste 14 Noroeste 0 -- -- 53
2019-11-26 13:00:00 24.1 6 Noroeste 11 Oeste 0 -- -- 60
2019-11-26 12:00:00 22.6 6 Sudoeste 13 Sudoeste 0 -- -- 67
2019-11-26 11:00:00 20.4 5 Sur 12 Sur 0 -- -- 74
2019-11-26 10:00:00 19.4 6 Sur 10 Sur 0 -- -- 77
2019-11-26 09:00:00 18 2 Sudeste 9 Este 0 -- -- 83
2019-11-26 08:00:00 15.7 5 Este 14 Sudeste 0 -- -- 89
2019-11-26 07:00:00 15.2 5 Este 9 Este 0 -- -- 90
2019-11-26 06:00:00 14.9 3 Nordeste 8 Nordeste 0 -- -- 89
2019-11-26 05:00:00 15.6 5 Nordeste 9 Nordeste 0 -- -- 86
2019-11-26 04:00:00 15.4 6 Nordeste 8 Este 0 -- -- 84
2019-11-26 03:00:00 15.4 4 Este 12 Este 0 -- -- 82
2019-11-26 02:00:00 15.9 8 Este 10 Este 0 -- -- 81
2019-11-26 01:00:00 15.7 6 Este 9 Este 0 -- -- 83
2019-11-26 00:00:00 16.5 2 Nordeste 5 Norte 0 -- -- 81
2019-11-25 23:00:00 18.1 0 Calma 7 Noroeste 0 -- -- 74
2019-11-25 22:00:00 18.8 4 Oeste 9 Oeste 0 -- -- 72
2019-11-25 21:00:00 19 3 Oeste 10 Sudoeste 0 -- -- 70
2019-11-25 20:00:00 19.1 2 Nordeste 9 Sur 0 -- -- 71
2019-11-25 19:00:00 19.2 2 Oeste 13 Sur 0 -- -- 70
2019-11-25 18:00:00 19.6 8 Sur 19 Sur 0 -- -- 68
2019-11-25 17:00:00 22.1 8 Sudoeste 14 Oeste 0 -- -- 59
2019-11-25 16:00:00 22.3 8 Oeste 12 Oeste 0 -- -- 60
2019-11-25 15:00:00 21.7 6 Sudoeste 10 Oeste 0 -- -- 62
2019-11-25 14:00:00 23 6 Oeste 12 Sudoeste 0 -- -- 57
2019-11-25 13:00:00 23.4 6 Oeste 13 Oeste 0 -- -- 57
2019-11-25 12:00:00 25.2 8 Oeste 13 Oeste 0 -- -- 50
2019-11-25 11:00:00 22.7 8 Oeste 11 Oeste 0 -- -- 59
2019-11-25 10:00:00 19.9 5 Nordeste 10 Norte 0 -- -- 64
2019-11-25 09:00:00 18.2 3 Nordeste 10 Este 0 -- -- 73
2019-11-25 08:00:00 16.9 5 Este 10 Este 0 -- -- 76
2019-11-25 07:00:00 16.5 3 Sudeste 8 Este 0 -- -- 79
2019-11-25 06:00:00 16.8 4 Sudeste 6 Este 0 -- -- 81
2019-11-25 05:00:00 17.5 3 Este 5 Nordeste 0 -- -- 82
2019-11-25 04:00:00 18.5 0 Calma 9 Oeste 0 -- -- 81
2019-11-25 03:00:00 18.9 4 Oeste 9 Oeste 0 -- -- 82
2019-11-25 02:00:00 19 3 Este 15 Oeste 0 -- -- 83
2019-11-25 01:00:00 18.9 6 Oeste 15 Oeste 0 -- -- 82
2019-11-25 00:00:00 18.6 6 Oeste 13 Sudoeste 0 -- -- 82
2019-11-24 23:00:00 18.2 2 Norte 7 Noroeste 0 -- -- 86
2019-11-24 22:00:00 18.8 4 Noroeste 8 Sudoeste 0 -- -- 87
2019-11-24 21:00:00 19.1 3 Oeste 9 Este 0 -- -- 88
2019-11-24 20:00:00 19.5 4 Nordeste 10 Este 0 -- -- 85
2019-11-24 19:00:00 20.1 5 Sudoeste 12 Sudoeste 0 -- -- 83
2019-11-24 18:00:00 21 6 Oeste 15 Oeste 0 -- -- 78
2019-11-24 17:00:00 21.8 7 Oeste 13 Sudoeste 0 -- -- 76
2019-11-24 16:00:00 21.7 6 Sudoeste 15 Sudoeste 0 -- -- 75
2019-11-24 15:00:00 23.6 12 Sudoeste 18 Sudoeste 0 -- -- 69
2019-11-24 14:00:00 26 9 Oeste 16 Oeste 0 -- -- 62
2019-11-24 13:00:00 26.4 10 Oeste 21 Noroeste 0 -- -- 60
2019-11-24 12:00:00 26 11 Noroeste 18 Noroeste 0 -- -- 63
2019-11-24 11:00:00 24.7 7 Oeste 12 Oeste 0 -- -- 69
2019-11-24 10:00:00 21.6 7 Sur 12 Sur 0 -- -- 77
2019-11-24 09:00:00 20.1 5 Sudeste 12 Sur 0 -- -- 82
2019-11-24 08:00:00 16.9 5 Sudeste 8 Sudeste 0 -- -- 92
2019-11-24 07:00:00 16.8 0 Calma 5 Este 0 -- -- 88
2019-11-24 06:00:00 17.6 3 Este 6 Sudeste 0 -- -- 85
2019-11-24 05:00:00 18.4 5 Sudeste 12 Sudeste 0 -- -- 82
2019-11-24 04:00:00 18.3 7 Norte 12 Norte 0 -- -- 90
2019-11-24 03:00:00 17.6 5 Sudeste 7 Sudeste 0 -- -- 94
2019-11-24 02:00:00 16.9 5 Sudeste 6 Sudeste 0 -- -- 92
2019-11-24 01:00:00 17 2 Este 6 Nordeste 0 -- -- 92
2019-11-24 00:00:00 17.4 4 Este 10 Sudeste 0 -- -- 89
2019-11-23 23:00:00 17.9 6 Sudeste 10 Este 0 -- -- 89
2019-11-23 22:00:00 17.9 4 Sudeste 6 Nordeste 0 -- -- 89
2019-11-23 21:00:00 18.7 0 Calma 8 Sur 0 -- -- 86
2019-11-23 20:00:00 19.4 4 Sudeste 10 Sudeste 0 -- -- 85
2019-11-23 19:00:00 20.3 5 Sudeste 10 Sudeste 0 -- -- 82
2019-11-23 18:00:00 22 0 Calma 10 Noroeste 0 -- -- 72
2019-11-23 17:00:00 23.7 6 Noroeste 13 Sudoeste 0 -- -- 68
2019-11-23 16:00:00 24.7 9 Sudoeste 16 Oeste 0 -- -- 73
2019-11-23 15:00:00 24.7 9 Sudoeste 16 Sudoeste 0 -- -- 71
2019-11-23 14:00:00 25.1 8 Sudoeste 17 Sudoeste 0 -- -- 71
2019-11-23 13:00:00 24.3 9 Sur 16 Sur 0 -- -- 75
2019-11-23 12:00:00 24.2 8 Sur 12 Sur 0 -- -- 73
2019-11-23 11:00:00 23.8 7 Sur 12 Sudeste 0 -- -- 76
2019-11-23 10:00:00 22.5 5 Sudoeste 10 Oeste 0 -- -- 78
2019-11-23 09:00:00 20.6 3 Sur 7 Sudeste 0 -- -- 82
2019-11-23 08:00:00 17.1 6 Sudeste 10 Este 0 -- -- 91
2019-11-23 07:00:00 17 0 Calma 12 Este 0 -- -- 90
2019-11-23 06:00:00 16.9 3 Este 9 Este 0 -- -- 91
2019-11-23 05:00:00 16.9 5 Sudeste 7 Sudeste 0 -- -- 94
2019-11-23 04:00:00 17.1 4 Sudeste 10 Sudeste 0 -- -- 90
2019-11-23 03:00:00 16.9 6 Sudeste 10 Sudeste 0 -- -- 91
2019-11-23 02:00:00 17 0 Calma 6 Este 0 -- -- 88
2019-11-23 01:00:00 17.6 6 Sudeste 11 Sudeste 0 -- -- 86
2019-11-23 00:00:00 17.7 0 Calma 9 Norte 0 -- -- 87
2019-11-22 23:00:00 18.9 8 Norte 25 Norte 0 -- -- 87
2019-11-22 22:00:00 18.9 6 Norte 19 Norte 0 -- -- 86
2019-11-22 21:00:00 18.9 9 Norte 17 Norte 0 -- -- 85
2019-11-22 20:00:00 19.2 2 Nordeste 21 Noroeste 0 -- -- 82
2019-11-22 19:00:00 19.9 7 Norte 13 Norte 0 -- -- 79
2019-11-22 18:00:00 21.4 4 Sudoeste 12 Oeste 0 -- -- 70
2019-11-22 17:00:00 23.4 7 Sudoeste 17 Sudoeste 0 -- -- 62
2019-11-22 16:00:00 25.6 8 Sudoeste 16 Sudoeste 0 -- -- 55
2019-11-22 15:00:00 25.2 4 Sudoeste 17 Noroeste 0 -- -- 59
2019-11-22 14:00:00 24.4 7 Sur 15 Sur 0 -- -- 62
2019-11-22 13:00:00 23.8 9 Sur 14 Sur 0 -- -- 64
2019-11-22 12:00:00 23.8 9 Sur 13 Sur 0 -- -- 69
2019-11-22 11:00:00 23.6 6 Sur 10 Sur 0 -- -- 70
2019-11-22 10:00:00 22.2 5 Sur 9 Sur 0 -- -- 74
2019-11-22 09:00:00 19.2 0 Calma 6 Sudeste 0 -- -- 84
2019-11-22 08:00:00 16 6 Sudeste 7 Sudeste 0 -- -- 95
2019-11-22 07:00:00 15.7 4 Nordeste 6 Sudeste 0 -- -- 92
2019-11-22 06:00:00 16.3 4 Sudeste 13 Norte 0 -- -- 91
2019-11-22 05:00:00 17.9 10 Norte 21 Nordeste 0 -- -- 84
2019-11-22 04:00:00 17.2 9 Nordeste 20 Norte 0 -- -- 91
2019-11-22 03:00:00 17.3 4 Nordeste 10 Norte 0 -- -- 93
2019-11-22 02:00:00 18 4 Nordeste 20 Norte 0 -- -- 93
2019-11-22 01:00:00 18.4 9 Norte 25 Norte 0.2 -- -- 97
2019-11-22 00:00:00 18.6 12 Norte 22 Noroeste 0 -- -- 96
2019-11-21 23:00:00 18.7 9 Norte 24 Norte 0.4 -- -- 96
2019-11-21 22:00:00 19 12 Norte 31 Norte 0.2 -- -- 96
2019-11-21 21:00:00 19.1 17 Norte 36 Norte 0 -- -- 93
2019-11-21 20:00:00 19.2 14 Norte 28 Norte 0 -- -- 92
2019-11-21 19:00:00 19.7 18 Norte 31 Norte 0 -- -- 88
2019-11-21 18:00:00 20 19 Norte 29 Norte 0 -- -- 82
2019-11-21 17:00:00 20.8 18 Norte 31 Noroeste 0 -- -- 76
2019-11-21 16:00:00 21.5 15 Norte 31 Noroeste 0 -- -- 73
2019-11-21 15:00:00 23.4 14 Norte 28 Norte 0 -- -- 65
2019-11-21 14:00:00 22.8 16 Norte 33 Norte 0 -- -- 64
2019-11-21 13:00:00 22.6 15 Norte 31 Norte 0 -- -- 65
2019-11-21 12:00:00 20.4 19 Norte 28 Norte 0 -- -- 72
2019-11-21 11:00:00 20.2 16 Norte 27 Norte 0 -- -- 73
2019-11-21 10:00:00 19.8 15 Norte 24 Norte 0 -- -- 74
2019-11-21 09:00:00 19.6 12 Norte 22 Noroeste 0 -- -- 75
2019-11-21 08:00:00 17.6 13 Norte 23 Norte 0 -- -- 81
2019-11-21 07:00:00 -- -- -- -- -- -- -- -- --
2019-11-21 06:00:00 -- -- -- -- -- -- -- -- --
2019-11-21 05:00:00 -- -- -- -- -- -- -- -- --
2019-11-21 04:00:00 -- -- -- -- -- -- -- -- --
2019-11-21 03:00:00 -- -- -- -- -- -- -- -- --
2019-11-21 02:00:00 -- -- -- -- -- -- -- -- --
2019-11-21 01:00:00 -- -- -- -- -- -- -- -- --
2019-11-21 00:00:00 -- -- -- -- -- -- -- -- --
2019-11-20 23:00:00 -- -- -- -- -- -- -- -- --
2019-11-20 22:00:00 -- -- -- -- -- -- -- -- --
2019-11-20 21:00:00 -- -- -- -- -- -- -- -- --
2019-11-20 20:00:00 -- -- -- -- -- -- -- -- --
2019-11-20 19:00:00 -- -- -- -- -- -- -- -- --
2019-11-20 18:00:00 19.9 12 Norte 31 Noroeste 0 -- -- 79
2019-11-20 17:00:00 21.1 14 Noroeste 28 Norte 0 -- -- 73
2019-11-20 16:00:00 21.8 19 Norte 35 Nordeste 0 -- -- 74
2019-11-20 15:00:00 21.4 16 Norte 29 Noroeste 0 -- -- 77
2019-11-20 14:00:00 22 18 Norte 37 Noroeste 0 -- -- 74
2019-11-20 13:00:00 24.3 18 Noroeste 28 Noroeste 0 -- -- 63
2019-11-20 12:00:00 24.7 13 Noroeste 22 Noroeste 0 -- -- 63
2019-11-20 11:00:00 23.7 9 Noroeste 19 Noroeste 0 -- -- 68
2019-11-20 10:00:00 22.1 7 Noroeste 14 Norte 0 -- -- 68
2019-11-20 09:00:00 18.7 2 Norte 6 Noroeste 0 -- -- 76
2019-11-20 08:00:00 14.7 2 Nordeste 6 Sudeste 0 -- -- 85
2019-11-20 07:00:00 15.4 4 Sudeste 10 Nordeste 0 -- -- 82
2019-11-20 06:00:00 16.4 5 Nordeste 12 Norte 0 -- -- 84
2019-11-20 05:00:00 17.1 7 Norte 12 Noroeste 0 -- -- 84
2019-11-20 04:00:00 17.8 8 Noroeste 19 Noroeste 0 -- -- 84
2019-11-20 03:00:00 17.6 10 Norte 28 Noroeste 0 -- -- 84
2019-11-20 02:00:00 15.2 3 Nordeste 9 Nordeste 0 -- -- 85
2019-11-20 01:00:00 15.7 5 Nordeste 8 Este 0 -- -- 84
2019-11-20 00:00:00 15.9 2 Sur 4 Sudeste 0 -- -- 84
2019-11-19 23:00:00 17.1 0 Calma 18 Norte 0 -- -- 79
2019-11-19 22:00:00 17.5 4 Norte 13 Norte 0 -- -- 77
2019-11-19 21:00:00 17.4 3 Este 13 Nordeste 0 -- -- 75
2019-11-19 20:00:00 17.8 0 Calma 8 Sur 0 -- -- 76
2019-11-19 19:00:00 18.9 2 Sur 14 Sur 0 -- -- 74
2019-11-19 18:00:00 20.1 8 Sur 24 Norte 0 -- -- 68
2019-11-19 17:00:00 21.6 14 Norte 38 Norte 0 -- -- 57
2019-11-19 16:00:00 23.4 18 Noroeste 31 Norte 0 -- -- 48
2019-11-19 15:00:00 23.2 9 Sur 20 Sur 0 -- -- 55
2019-11-19 14:00:00 23.8 10 Sur 21 Sur 0 -- -- 56
2019-11-19 13:00:00 23.2 12 Sur 21 Sur 0 -- -- 55
2019-11-19 12:00:00 23.5 9 Sur 15 Sur 0 -- -- 55
2019-11-19 11:00:00 23 9 Sur 21 Nordeste 0 -- -- 53
2019-11-19 10:00:00 21.7 5 Sur 11 Oeste 0 -- -- 59
2019-11-19 09:00:00 18.5 5 Sudeste 17 Nordeste 0 -- -- 68
2019-11-19 08:00:00 14.4 6 Nordeste 9 Este 0 -- -- 81
2019-11-19 07:00:00 14.5 3 Nordeste 12 Este 0 -- -- 78
2019-11-19 06:00:00 15.1 6 Este 11 Este 0 -- -- 79
2019-11-19 05:00:00 15 5 Este 7 Nordeste 0 -- -- 83
2019-11-19 04:00:00 16 2 Este 4 Nordeste 0 -- -- 81
2019-11-19 03:00:00 16.8 4 Este 8 Este 0 -- -- 77
2019-11-19 02:00:00 17.2 6 Este 11 Sudeste 0 -- -- 73
2019-11-19 01:00:00 15.8 4 Este 12 Sudeste 0 -- -- 81
2019-11-19 00:00:00 15.3 4 Sudeste 9 Este 0 -- -- 82
2019-11-18 23:00:00 16.1 6 Este 12 Este 0 -- -- 80
2019-11-18 22:00:00 16.5 2 Norte 4 Nordeste 0 -- -- 78
2019-11-18 21:00:00 18 0 Calma 5 Noroeste 0 -- -- 76
2019-11-18 20:00:00 18.8 2 Sudoeste 7 Este 0 -- -- 75
2019-11-18 19:00:00 19.3 3 Sudeste 9 Sur 0 -- -- 73
2019-11-18 18:00:00 20.2 3 Noroeste 12 Oeste 0 -- -- 69
2019-11-18 17:00:00 21.4 5 Noroeste 13 Oeste 0 -- -- 65
2019-11-18 16:00:00 23.2 9 Sudoeste 14 Sudoeste 0 -- -- 58
2019-11-18 15:00:00 23 9 Sudoeste 18 Sur 0 -- -- 59
2019-11-18 14:00:00 24 10 Sudoeste 18 Sur 0 -- -- 55
2019-11-18 13:00:00 24.2 10 Sudoeste 17 Sudoeste 0 -- -- 55
2019-11-18 12:00:00 25.5 10 Oeste 17 Oeste 0 -- -- 51
2019-11-18 11:00:00 24 8 Oeste 13 Oeste 0 -- -- 56
2019-11-18 10:00:00 22.7 7 Oeste 11 Oeste 0 -- -- 59
2019-11-18 09:00:00 19.6 3 Oeste 8 Nordeste 0 -- -- 70
2019-11-18 08:00:00 15.6 2 Sudeste 10 Sudeste 0 -- -- 83
2019-11-18 07:00:00 15.8 8 Este 13 Este 0 -- -- 79
2019-11-18 06:00:00 15.8 10 Este 15 Este 0 -- -- 78
2019-11-18 05:00:00 15.8 6 Noroeste 20 Oeste 0 -- -- 76
2019-11-18 04:00:00 15.6 4 Este 12 Este 0 -- -- 78
2019-11-18 03:00:00 16.1 8 Este 17 Sudeste 0 -- -- 75
2019-11-18 02:00:00 16.3 10 Este 16 Este 0 -- -- 74
2019-11-18 01:00:00 16.2 3 Norte 7 Norte 0 -- -- 75
2019-11-18 00:00:00 17.1 6 Sudeste 10 Sudeste 0 -- -- 72
2019-11-17 23:00:00 17.3 6 Sudeste 14 Sudeste 0 -- -- 69
2019-11-17 22:00:00 17.8 3 Norte 15 Oeste 0 -- -- 68
2019-11-17 21:00:00 18.2 4 Este 15 Sur 0 -- -- 67
2019-11-17 20:00:00 18.5 4 Sur 17 Sudoeste 0 -- -- 62
2019-11-17 19:00:00 19 5 Nordeste 19 Norte 0 -- -- 60
2019-11-17 18:00:00 20.3 5 Sudoeste 13 Sudoeste 0 -- -- 60
2019-11-17 17:00:00 21.3 5 Sur 18 Sur 0 -- -- 60
2019-11-17 16:00:00 22.7 8 Sudoeste 24 Oeste 0 -- -- 53
2019-11-17 15:00:00 23.5 10 Sudoeste 21 Sudoeste 0 -- -- 52
2019-11-17 14:00:00 22.9 6 Oeste 15 Sudoeste 0 -- -- 55
2019-11-17 13:00:00 24.1 10 Sudoeste 15 Oeste 0 -- -- 52
2019-11-17 12:00:00 21.6 5 Oeste 10 Sudoeste 0 -- -- 59
2019-11-17 11:00:00 21.1 5 Noroeste 13 Sudoeste 0 -- -- 61
2019-11-17 10:00:00 19.4 4 Sudoeste 13 Sudoeste 0 -- -- 67
2019-11-17 09:00:00 19 4 Oeste 8 Sudoeste 0 -- -- 68
2019-11-17 08:00:00 15.7 3 Sudeste 10 Sudeste 0 -- -- 77
2019-11-17 07:00:00 16.4 3 Sudeste 13 Norte 0 -- -- 73
2019-11-17 06:00:00 17.3 3 Nordeste 8 Norte 0 -- -- 71
2019-11-17 05:00:00 17.2 4 Norte 15 Noroeste 0 -- -- 71
2019-11-17 04:00:00 17.1 6 Noroeste 14 Noroeste 0 -- -- 68
2019-11-17 03:00:00 17.4 4 Sur 18 Nordeste 0 -- -- 68
2019-11-17 02:00:00 17.3 4 Norte 14 Noroeste 0 -- -- 68
2019-11-17 01:00:00 17.2 5 Este 10 Este 0 -- -- 70
2019-11-17 00:00:00 17.6 4 Sudeste 16 Este 0 -- -- 63
2019-11-16 23:00:00 18.1 8 Sudeste 20 Sur 0 -- -- 55
2019-11-16 22:00:00 18.4 4 Noroeste 29 Oeste 0 -- -- 66
2019-11-16 21:00:00 19 8 Sur 25 Sur 0 -- -- 67
2019-11-16 20:00:00 19.1 9 Este 40 Sudeste 0 -- -- 56
2019-11-16 19:00:00 19.1 5 Sudeste 19 Sudoeste 0 -- -- 61
2019-11-16 18:00:00 20.2 5 Oeste 38 Sudeste 0 -- -- 55
2019-11-16 17:00:00 21.8 11 Este 34 Este 0 -- -- 51
2019-11-16 16:00:00 23.1 11 Sur 22 Sudeste 0 -- -- 46
2019-11-16 15:00:00 24.2 8 Sur 27 Noroeste 0 -- -- 44
2019-11-16 14:00:00 24.8 13 Sudoeste 23 Sudoeste 0 -- -- 47
2019-11-16 13:00:00 24.4 14 Sudoeste 29 Sudoeste 0 -- -- 47
2019-11-16 12:00:00 23 6 Sur 23 Sudeste 0 -- -- 49
2019-11-16 11:00:00 22.3 11 Sur 27 Nordeste 0 -- -- 52
2019-11-16 10:00:00 21 12 Sur 27 Noroeste 0 -- -- 53
2019-11-16 09:00:00 18.4 12 Nordeste 27 Norte 0 -- -- 61
2019-11-16 08:00:00 17.5 14 Sudeste 28 Este 0 -- -- 66
2019-11-16 07:00:00 17.1 6 Norte 16 Noroeste 0 -- -- 69
2019-11-16 06:00:00 17.2 3 Noroeste 17 Oeste 0 -- -- 69
2019-11-16 05:00:00 17.5 6 Sudoeste 31 Norte 0 -- -- 65
2019-11-16 04:00:00 17.6 5 Norte 24 Norte 0 -- -- 63
2019-11-16 03:00:00 17.8 15 Norte 27 Noroeste 0 -- -- 66
2019-11-16 02:00:00 17.8 8 Nordeste 24 Norte 0 -- -- 62
2019-11-16 01:00:00 17.7 8 Norte 24 Noroeste 0 -- -- 68
2019-11-16 00:00:00 17.4 11 Noroeste 26 Norte 0 -- -- 68
2019-11-15 23:00:00 17.9 7 Oeste 35 Nordeste 0 -- -- 63
2019-11-15 22:00:00 18.5 17 Este 46 Nordeste 0 -- -- 62
2019-11-15 21:00:00 18.5 19 Este 59 Este 0 -- -- 57
2019-11-15 20:00:00 18.4 17 Este 50 Este 0 -- -- 55
2019-11-15 19:00:00 18.6 12 Nordeste 40 Norte 0 -- -- 56
2019-11-15 18:00:00 19.3 8 Este 40 Nordeste 0 -- -- 57
2019-11-15 17:00:00 20.5 19 Este 52 Norte 0 -- -- 56
2019-11-15 16:00:00 22.2 14 Nordeste 42 Este 0 -- -- 55
2019-11-15 15:00:00 21.9 9 Nordeste 36 Este 0 -- -- 57
2019-11-15 14:00:00 21.9 7 Norte 19 Norte 0 -- -- 61
2019-11-15 13:00:00 21.8 4 Sur 22 Noroeste 0 -- -- 60
2019-11-15 12:00:00 21.8 6 Noroeste 15 Noroeste 0 -- -- 64
2019-11-15 11:00:00 20.8 11 Norte 21 Norte 0 -- -- 69
2019-11-15 10:00:00 19.4 10 Norte 23 Norte 0 -- -- 72
2019-11-15 09:00:00 19 6 Norte 21 Nordeste 0 -- -- 69
2019-11-15 08:00:00 18.1 5 Sudeste 15 Noroeste 0 -- -- 69
2019-11-15 07:00:00 18.2 9 Noroeste 20 Noroeste 0 -- -- 68
2019-11-15 06:00:00 18.2 7 Sur 19 Este 0 -- -- 66
2019-11-15 05:00:00 18.1 8 Sudeste 30 Nordeste 0 -- -- 67
2019-11-15 04:00:00 18.5 4 Sur 15 Sudoeste 0 -- -- 69
2019-11-15 03:00:00 19.1 8 Sudoeste 21 Oeste 0 -- -- 68
2019-11-15 02:00:00 19.4 12 Sudeste 42 Sudeste 0 -- -- 68
2019-11-15 01:00:00 18.6 4 Sudeste 14 Oeste 0 -- -- 76
2019-11-15 00:00:00 18.5 4 Este 19 Sudoeste 0 -- -- 74